createdAt,value
2022-11-15T00:00:55.477Z,9.52
2022-11-15T00:01:55.499Z,9.62
2022-11-15T00:02:55.452Z,9.70
2022-11-15T00:03:55.459Z,9.76
2022-11-15T00:04:55.445Z,9.82
2022-11-15T00:05:55.418Z,9.86
2022-11-15T00:06:55.581Z,9.88
2022-11-15T00:07:56.322Z,9.91
2022-11-15T00:08:55.480Z,9.87
2022-11-15T00:09:55.472Z,9.85
2022-11-15T00:10:55.468Z,9.81
2022-11-15T00:11:55.475Z,9.79
2022-11-15T00:12:55.454Z,9.77
2022-11-15T00:14:55.467Z,9.74
2022-11-15T00:15:55.472Z,9.69
2022-11-15T00:16:55.507Z,9.65
2022-11-15T00:17:55.471Z,9.61
2022-11-15T00:18:55.500Z,9.58
2022-11-15T00:19:55.457Z,9.55
2022-11-15T00:20:55.479Z,9.53
2022-11-15T00:21:55.524Z,9.51
2022-11-15T00:23:55.467Z,9.49
2022-11-15T00:24:55.551Z,9.44
2022-11-15T00:25:55.511Z,9.37
2022-11-15T00:26:55.537Z,9.34
2022-11-15T00:27:55.488Z,9.32
2022-11-15T00:28:55.481Z,9.28
2022-11-15T00:29:55.528Z,9.27
2022-11-15T00:30:56.773Z,9.26
2022-11-15T00:31:55.507Z,9.24
2022-11-15T00:32:55.524Z,9.22
2022-11-15T00:33:55.514Z,9.18
2022-11-15T00:34:55.540Z,9.17
2022-11-15T00:35:55.509Z,9.08
2022-11-15T00:36:55.564Z,9.02
2022-11-15T00:37:55.508Z,9.01
2022-11-15T00:39:55.548Z,9.03
2022-11-15T00:40:55.546Z,9.06
2022-11-15T00:41:55.522Z,9.10
2022-11-15T00:42:55.522Z,9.14
2022-11-15T00:43:55.533Z,9.16
2022-11-15T00:44:55.573Z,9.19
2022-11-15T00:45:55.516Z,9.20
2022-11-15T00:46:55.553Z,9.17
2022-11-15T00:47:55.564Z,9.13
2022-11-15T00:48:55.540Z,9.11
2022-11-15T00:49:55.572Z,9.09
2022-11-15T00:51:55.560Z,9.10
2022-11-15T00:52:55.540Z,9.15
2022-11-15T00:53:55.564Z,9.16
2022-11-15T00:55:55.574Z,9.18
2022-11-15T00:56:55.570Z,9.21
2022-11-15T00:57:55.576Z,9.22
2022-11-15T00:58:55.585Z,9.24
2022-11-15T00:59:55.581Z,9.27
2022-11-15T01:00:55.655Z,9.28
2022-11-15T01:01:55.563Z,9.30
2022-11-15T01:02:55.633Z,9.32
2022-11-15T01:04:00.909Z,9.33
2022-11-15T01:05:55.609Z,9.29
2022-11-15T01:06:55.644Z,9.27
2022-11-15T01:07:55.631Z,9.22
2022-11-15T01:08:55.607Z,9.20
2022-11-15T01:09:55.598Z,9.15
2022-11-15T01:10:55.584Z,9.13
2022-11-15T01:11:55.607Z,9.14
2022-11-15T01:12:55.638Z,9.10
2022-11-15T01:13:55.592Z,9.07
2022-11-15T01:14:55.602Z,9.06
2022-11-15T01:15:55.634Z,9.07
2022-11-15T01:16:55.604Z,9.05
2022-11-15T01:17:55.632Z,9.03
2022-11-15T01:18:55.625Z,9.04
2022-11-15T01:19:55.627Z,9.03
2022-11-15T01:20:55.663Z,9.05
2022-11-15T01:21:55.615Z,9.09
2022-11-15T01:22:55.630Z,9.11
2022-11-15T01:23:55.633Z,9.12
2022-11-15T01:24:55.616Z,9.05
2022-11-15T01:25:55.667Z,8.89
2022-11-15T01:26:55.632Z,8.83
2022-11-15T01:27:55.642Z,8.82
2022-11-15T01:28:55.624Z,8.76
2022-11-15T01:29:55.633Z,8.65
2022-11-15T01:30:55.620Z,8.46
2022-11-15T01:31:55.659Z,8.48
2022-11-15T01:32:55.649Z,8.55
2022-11-15T01:33:55.691Z,8.66
2022-11-15T01:34:55.657Z,8.80
2022-11-15T01:35:55.685Z,8.91
2022-11-15T01:36:55.681Z,8.99
2022-11-15T01:37:55.669Z,9.05
2022-11-15T01:38:55.701Z,9.08
2022-11-15T01:39:55.669Z,9.11
2022-11-15T01:40:55.714Z,9.18
2022-11-15T01:41:55.673Z,9.23
2022-11-15T01:42:55.668Z,9.28
2022-11-15T01:43:55.740Z,9.32
2022-11-15T01:44:55.698Z,9.34
2022-11-15T01:45:55.676Z,9.37
2022-11-15T01:46:55.698Z,9.41
2022-11-15T01:47:55.699Z,9.42
2022-11-15T01:49:55.708Z,9.43
2022-11-15T01:50:55.746Z,9.45
2022-11-15T01:51:55.692Z,9.46
2022-11-15T01:52:55.701Z,9.47
2022-11-15T01:53:55.716Z,9.49
2022-11-15T01:54:55.701Z,9.51
2022-11-15T01:55:55.707Z,9.53
2022-11-15T01:56:55.726Z,9.55
2022-11-15T01:57:55.701Z,9.56
2022-11-15T01:58:55.773Z,9.57
2022-11-15T01:59:55.715Z,9.56
2022-11-15T02:00:55.833Z,9.58
2022-11-15T02:01:55.766Z,9.60
2022-11-15T02:02:55.735Z,9.58
2022-11-15T02:03:55.756Z,9.56
2022-11-15T02:05:55.713Z,9.55
2022-11-15T02:06:55.845Z,9.57
2022-11-15T02:07:55.740Z,9.58
2022-11-15T02:08:55.779Z,9.60
2022-11-15T02:12:55.765Z,9.61
2022-11-15T02:14:55.764Z,9.63
2022-11-15T02:17:55.781Z,9.64
2022-11-15T02:18:55.766Z,9.65
2022-11-15T02:19:55.771Z,9.62
2022-11-15T02:20:55.802Z,9.60
2022-11-15T02:21:55.771Z,9.58
2022-11-15T02:22:55.777Z,9.55
2022-11-15T02:23:55.758Z,9.54
2022-11-15T02:24:55.828Z,9.53
2022-11-15T02:26:55.810Z,9.54
2022-11-15T02:27:55.792Z,9.55
2022-11-15T02:28:55.787Z,9.57
2022-11-15T02:29:55.831Z,9.58
2022-11-15T02:30:55.788Z,9.62
2022-11-15T02:31:55.794Z,9.66
2022-11-15T02:32:55.785Z,9.70
2022-11-15T02:33:55.786Z,9.72
2022-11-15T02:34:55.805Z,9.75
2022-11-15T02:35:55.802Z,9.78
2022-11-15T02:36:55.817Z,9.80
2022-11-15T02:37:55.794Z,9.81
2022-11-15T02:38:55.804Z,9.82
2022-11-15T02:40:55.817Z,9.79
2022-11-15T02:41:55.836Z,9.81
2022-11-15T02:42:55.868Z,9.82
2022-11-15T02:43:55.823Z,9.80
2022-11-15T02:44:55.872Z,9.70
2022-11-15T02:45:55.889Z,9.64
2022-11-15T02:46:55.846Z,9.66
2022-11-15T02:47:55.879Z,9.68
2022-11-15T02:48:55.867Z,9.70
2022-11-15T02:49:55.862Z,9.73
2022-11-15T02:50:55.831Z,9.76
2022-11-15T02:51:55.863Z,9.79
2022-11-15T02:52:55.872Z,9.81
2022-11-15T02:53:55.847Z,9.82
2022-11-15T02:54:55.851Z,9.84
2022-11-15T02:55:55.865Z,9.87
2022-11-15T02:56:55.888Z,9.89
2022-11-15T02:57:55.908Z,9.90
2022-11-15T02:59:55.895Z,9.87
2022-11-15T03:00:55.959Z,9.81
2022-11-15T03:01:55.855Z,9.77
2022-11-15T03:02:55.902Z,9.76
2022-11-15T03:03:55.875Z,9.75
2022-11-15T03:04:55.862Z,9.74
2022-11-15T03:05:55.866Z,9.75
2022-11-15T03:06:55.982Z,9.76
2022-11-15T03:08:01.875Z,9.75
2022-11-15T03:09:55.934Z,9.72
2022-11-15T03:10:55.930Z,9.71
2022-11-15T03:12:55.912Z,9.72
2022-11-15T03:13:55.912Z,9.73
2022-11-15T03:14:55.890Z,9.74
2022-11-15T03:15:55.903Z,9.75
2022-11-15T03:16:55.929Z,9.77
2022-11-15T03:17:55.895Z,9.79
2022-11-15T03:18:55.942Z,9.81
2022-11-15T03:19:55.905Z,9.82
2022-11-15T03:20:55.922Z,9.83
2022-11-15T03:21:55.941Z,9.85
2022-11-15T03:22:55.941Z,9.87
2022-11-15T03:24:55.954Z,9.84
2022-11-15T03:25:55.947Z,9.83
2022-11-15T03:26:55.933Z,9.81
2022-11-15T03:27:55.946Z,9.79
2022-11-15T03:28:55.990Z,9.76
2022-11-15T03:29:55.919Z,9.75
2022-11-15T03:32:55.953Z,9.74
2022-11-15T03:33:55.992Z,9.76
2022-11-15T03:35:55.977Z,9.73
2022-11-15T03:36:55.974Z,9.66
2022-11-15T03:37:56.004Z,9.62
2022-11-15T03:38:55.974Z,9.59
2022-11-15T03:39:55.988Z,9.56
2022-11-15T03:40:55.990Z,9.55
2022-11-15T03:42:55.943Z,9.58
2022-11-15T03:43:56.010Z,9.60
2022-11-15T03:44:55.982Z,9.62
2022-11-15T03:46:56.038Z,9.63
2022-11-15T03:48:56.001Z,9.65
2022-11-15T03:49:56.004Z,9.66
2022-11-15T03:50:55.981Z,9.65
2022-11-15T03:51:55.975Z,9.66
2022-11-15T03:52:56.029Z,9.67
2022-11-15T03:54:56.028Z,9.68
2022-11-15T03:55:56.002Z,9.66
2022-11-15T03:56:56.004Z,9.65
2022-11-15T03:57:56.049Z,9.66
2022-11-15T03:59:56.027Z,9.65
2022-11-15T04:00:56.062Z,9.62
2022-11-15T04:01:56.045Z,9.59
2022-11-15T04:02:56.033Z,9.58
2022-11-15T04:06:56.069Z,9.56
2022-11-15T04:07:56.080Z,9.55
2022-11-15T04:11:56.038Z,9.53
2022-11-15T04:12:56.153Z,9.52
2022-11-15T04:14:56.066Z,9.51
2022-11-15T04:15:56.068Z,9.49
2022-11-15T04:16:56.069Z,9.47
2022-11-15T04:17:56.093Z,9.46
2022-11-15T04:18:56.040Z,9.47
2022-11-15T04:19:56.073Z,9.45
2022-11-15T04:20:56.100Z,9.46
2022-11-15T04:21:56.100Z,9.45
2022-11-15T04:22:56.072Z,9.47
2022-11-15T04:23:56.072Z,9.38
2022-11-15T04:24:56.098Z,9.25
2022-11-15T04:25:56.117Z,9.17
2022-11-15T04:26:56.106Z,9.11
2022-11-15T04:27:56.130Z,9.12
2022-11-15T04:28:56.079Z,9.11
2022-11-15T04:29:56.069Z,9.14
2022-11-15T04:30:56.122Z,9.18
2022-11-15T04:31:56.099Z,9.16
2022-11-15T04:32:56.124Z,9.14
2022-11-15T04:33:56.096Z,9.13
2022-11-15T04:34:56.099Z,9.16
2022-11-15T04:36:56.102Z,9.13
2022-11-15T04:37:56.114Z,9.12
2022-11-15T04:38:56.126Z,9.10
2022-11-15T04:39:56.110Z,9.09
2022-11-15T04:40:56.146Z,9.10
2022-11-15T04:41:56.114Z,9.09
2022-11-15T04:43:00.835Z,9.10
2022-11-15T04:43:56.155Z,9.11
2022-11-15T04:44:56.125Z,9.12
2022-11-15T04:46:56.145Z,9.13
2022-11-15T04:47:56.130Z,9.12
2022-11-15T04:48:58.954Z,9.13
2022-11-15T04:49:56.117Z,9.14
2022-11-15T04:56:56.180Z,9.12
2022-11-15T04:57:56.153Z,9.15
2022-11-15T04:58:56.204Z,9.13
2022-11-15T04:59:56.155Z,9.12
2022-11-15T05:00:56.231Z,9.09
2022-11-15T05:01:56.175Z,9.07
2022-11-15T05:02:56.159Z,9.06
2022-11-15T05:03:56.164Z,9.03
2022-11-15T05:04:56.181Z,8.99
2022-11-15T05:06:56.216Z,8.97
2022-11-15T05:09:56.186Z,8.96
2022-11-15T05:10:56.218Z,8.97
2022-11-15T05:11:56.197Z,8.98
2022-11-15T05:12:56.180Z,8.99
2022-11-15T05:15:56.213Z,9.01
2022-11-15T05:16:56.246Z,9.02
2022-11-15T05:17:56.211Z,9.03
2022-11-15T05:19:56.216Z,9.02
2022-11-15T05:20:56.232Z,9.00
2022-11-15T05:22:56.212Z,8.98
2022-11-15T05:23:56.217Z,8.97
2022-11-15T05:25:56.222Z,8.95
2022-11-15T05:26:56.292Z,8.98
2022-11-15T05:27:56.237Z,8.99
2022-11-15T05:28:56.249Z,8.97
2022-11-15T05:30:56.240Z,9.00
2022-11-15T05:32:56.261Z,8.98
2022-11-15T05:33:56.243Z,8.99
2022-11-15T05:34:56.257Z,9.00
2022-11-15T05:36:56.256Z,8.96
2022-11-15T05:38:56.273Z,8.97
2022-11-15T05:40:56.258Z,8.98
2022-11-15T05:41:56.281Z,8.95
2022-11-15T05:42:56.265Z,8.93
2022-11-15T05:43:56.288Z,8.91
2022-11-15T05:44:56.311Z,8.92
2022-11-15T05:45:56.288Z,8.95
2022-11-15T05:49:56.324Z,8.92
2022-11-15T05:50:56.262Z,8.88
2022-11-15T05:51:56.344Z,8.87
2022-11-15T05:52:58.617Z,8.84
2022-11-15T05:53:56.297Z,8.82
2022-11-15T05:54:56.322Z,8.77
2022-11-15T05:55:56.270Z,8.74
2022-11-15T05:56:56.293Z,8.72
2022-11-15T05:57:56.313Z,8.73
2022-11-15T05:59:56.327Z,8.74
2022-11-15T06:00:56.318Z,8.73
2022-11-15T06:01:56.394Z,8.72
2022-11-15T06:02:56.319Z,8.70
2022-11-15T06:06:56.463Z,8.69
2022-11-15T06:07:56.323Z,8.70
2022-11-15T06:08:56.331Z,8.68
2022-11-15T06:09:56.362Z,8.67
2022-11-15T06:10:56.328Z,8.66
2022-11-15T06:11:56.354Z,8.68
2022-11-15T06:12:56.321Z,8.70
2022-11-15T06:13:56.334Z,8.71
2022-11-15T06:14:56.379Z,8.74
2022-11-15T06:15:56.342Z,8.76
2022-11-15T06:16:56.353Z,8.77
2022-11-15T06:17:56.357Z,8.79
2022-11-15T06:18:56.375Z,8.80
2022-11-15T06:19:56.351Z,8.84
2022-11-15T06:23:56.376Z,8.83
2022-11-15T06:24:58.304Z,8.82
2022-11-15T06:25:56.404Z,8.80
2022-11-15T06:28:56.390Z,8.83
2022-11-15T06:29:56.407Z,8.84
2022-11-15T06:30:56.412Z,8.85
2022-11-15T06:31:56.404Z,8.87
2022-11-15T06:32:56.396Z,8.88
2022-11-15T06:33:56.414Z,8.91
2022-11-15T06:34:56.391Z,8.92
2022-11-15T06:35:56.416Z,8.91
2022-11-15T06:36:56.411Z,8.92
2022-11-15T06:37:56.448Z,8.94
2022-11-15T06:38:56.406Z,8.93
2022-11-15T06:39:56.421Z,8.91
2022-11-15T06:40:56.416Z,8.89
2022-11-15T06:41:56.413Z,8.87
2022-11-15T06:42:56.447Z,8.86
2022-11-15T06:44:56.430Z,8.87
2022-11-15T06:45:56.457Z,8.89
2022-11-15T06:46:56.428Z,8.92
2022-11-15T06:47:56.420Z,8.95
2022-11-15T06:48:56.447Z,8.96
2022-11-15T06:49:56.424Z,8.99
2022-11-15T06:50:56.436Z,9.01
2022-11-15T06:51:56.438Z,9.03
2022-11-15T06:52:56.438Z,9.05
2022-11-15T06:53:56.458Z,9.07
2022-11-15T06:54:56.449Z,9.09
2022-11-15T06:55:56.483Z,9.12
2022-11-15T06:56:56.474Z,9.16
2022-11-15T06:57:56.455Z,9.19
2022-11-15T06:58:56.457Z,9.23
2022-11-15T06:59:56.444Z,9.25
2022-11-15T07:01:56.460Z,9.24
2022-11-15T07:04:56.485Z,9.25
2022-11-15T07:05:56.487Z,9.28
2022-11-15T07:06:56.512Z,9.30
2022-11-15T07:10:56.469Z,9.29
2022-11-15T07:11:56.487Z,9.27
2022-11-15T07:12:56.491Z,9.24
2022-11-15T07:13:56.505Z,9.22
2022-11-15T07:16:56.539Z,9.18
2022-11-15T07:17:56.522Z,9.13
2022-11-15T07:18:56.541Z,9.09
2022-11-15T07:19:56.506Z,9.07
2022-11-15T07:21:56.545Z,9.08
2022-11-15T07:22:56.520Z,9.12
2022-11-15T07:23:56.546Z,9.18
2022-11-15T07:24:56.543Z,9.24
2022-11-15T07:25:56.512Z,9.29
2022-11-15T07:26:56.568Z,9.33
2022-11-15T07:27:56.508Z,9.38
2022-11-15T07:28:56.569Z,9.42
2022-11-15T07:29:56.561Z,9.48
2022-11-15T07:30:56.539Z,9.53
2022-11-15T07:31:56.569Z,9.60
2022-11-15T07:32:56.540Z,9.67
2022-11-15T07:33:56.565Z,9.75
2022-11-15T07:34:56.580Z,9.82
2022-11-15T07:35:56.548Z,9.85
2022-11-15T07:36:56.530Z,9.90
2022-11-15T07:37:56.555Z,9.98
2022-11-15T07:38:56.568Z,10.06
2022-11-15T07:39:56.575Z,10.13
2022-11-15T07:40:56.595Z,10.19
2022-11-15T07:41:56.554Z,10.24
2022-11-15T07:42:56.589Z,10.28
2022-11-15T07:43:56.561Z,10.26
2022-11-15T07:44:56.592Z,10.23
2022-11-15T07:45:59.394Z,10.27
2022-11-15T07:46:56.567Z,10.31
2022-11-15T07:47:56.616Z,10.54
2022-11-15T07:48:56.593Z,11.16
2022-11-15T07:49:56.627Z,12.11
2022-11-15T07:50:56.590Z,13.32
2022-11-15T07:51:56.571Z,14.54
2022-11-15T07:52:56.615Z,15.70
2022-11-15T07:53:56.608Z,16.73
2022-11-15T07:54:56.609Z,17.65
2022-11-15T07:55:56.612Z,18.52
2022-11-15T07:56:56.606Z,19.29
2022-11-15T07:57:56.624Z,19.94
2022-11-15T07:58:56.596Z,20.42
2022-11-15T07:59:56.627Z,20.74
2022-11-15T08:00:56.812Z,20.94
2022-11-15T08:01:56.754Z,20.97
2022-11-15T08:02:56.810Z,21.42
2022-11-15T08:03:56.594Z,22.12
2022-11-15T08:04:56.658Z,22.83
2022-11-15T08:05:56.597Z,23.42
2022-11-15T08:06:56.712Z,24.12
2022-11-15T08:07:56.677Z,24.81
2022-11-15T08:08:56.620Z,25.49
2022-11-15T08:09:56.619Z,25.97
2022-11-15T08:10:56.643Z,26.59
2022-11-15T08:11:56.632Z,26.92
2022-11-15T08:12:56.715Z,26.80
2022-11-15T08:13:56.641Z,26.44
2022-11-15T08:14:56.632Z,26.05
2022-11-15T08:15:57.945Z,25.78
2022-11-15T08:16:56.652Z,25.91
2022-11-15T08:17:56.656Z,25.69
2022-11-15T08:18:56.649Z,25.05
2022-11-15T08:19:56.673Z,24.18
2022-11-15T08:20:56.702Z,23.34
2022-11-15T08:21:56.659Z,22.62
2022-11-15T08:22:56.692Z,22.08
2022-11-15T08:23:56.674Z,21.40
2022-11-15T08:24:56.664Z,20.63
2022-11-15T08:25:56.711Z,19.93
2022-11-15T08:26:56.674Z,19.34
2022-11-15T08:27:56.710Z,18.81
2022-11-15T08:28:56.675Z,18.31
2022-11-15T08:29:59.445Z,17.87
2022-11-15T08:30:56.679Z,17.47
2022-11-15T08:31:56.697Z,17.04
2022-11-15T08:32:56.718Z,16.59
2022-11-15T08:33:56.691Z,16.21
2022-11-15T08:34:56.705Z,15.88
2022-11-15T08:35:56.738Z,15.59
2022-11-15T08:36:56.717Z,15.29
2022-11-15T08:37:56.730Z,15.07
2022-11-15T08:38:56.709Z,14.91
2022-11-15T08:39:56.703Z,14.73
2022-11-15T08:40:56.772Z,14.53
2022-11-15T08:41:56.710Z,14.38
2022-11-15T08:42:56.759Z,14.25
2022-11-15T08:43:56.743Z,14.20
2022-11-15T08:44:56.714Z,14.19
2022-11-15T08:46:56.755Z,14.12
2022-11-15T08:47:56.757Z,14.09
2022-11-15T08:48:56.727Z,14.07
2022-11-15T08:49:56.747Z,14.04
2022-11-15T08:50:56.781Z,13.98
2022-11-15T08:51:56.749Z,13.94
2022-11-15T08:52:56.729Z,13.92
2022-11-15T08:53:56.750Z,13.96
2022-11-15T08:54:56.760Z,13.99
2022-11-15T08:55:56.778Z,13.87
2022-11-15T08:56:56.755Z,13.74
2022-11-15T08:57:56.767Z,13.73
2022-11-15T08:58:56.761Z,13.80
2022-11-15T08:59:56.767Z,13.88
2022-11-15T09:00:56.798Z,13.95
2022-11-15T09:01:56.774Z,13.99
2022-11-15T09:02:56.782Z,14.02
2022-11-15T09:03:56.808Z,14.07
2022-11-15T09:04:56.771Z,14.12
2022-11-15T09:05:56.765Z,14.20
2022-11-15T09:06:56.807Z,14.41
2022-11-15T09:07:56.780Z,14.74
2022-11-15T09:08:56.799Z,15.17
2022-11-15T09:09:56.784Z,15.54
2022-11-15T09:10:56.836Z,15.65
2022-11-15T09:12:01.166Z,15.69
2022-11-15T09:12:56.779Z,15.66
2022-11-15T09:13:56.793Z,15.51
2022-11-15T09:14:56.789Z,15.24
2022-11-15T09:15:56.837Z,15.12
2022-11-15T09:16:56.800Z,15.03
2022-11-15T09:17:56.822Z,14.96
2022-11-15T09:18:56.807Z,14.92
2022-11-15T09:19:56.811Z,14.89
2022-11-15T09:20:56.851Z,14.85
2022-11-15T09:21:56.813Z,14.78
2022-11-15T09:22:56.795Z,14.70
2022-11-15T09:23:56.839Z,14.62
2022-11-15T09:24:56.844Z,14.54
2022-11-15T09:25:56.883Z,14.46
2022-11-15T09:26:56.827Z,14.35
2022-11-15T09:27:56.839Z,14.28
2022-11-15T09:28:56.863Z,14.22
2022-11-15T09:29:56.825Z,14.16
2022-11-15T09:30:56.859Z,14.11
2022-11-15T09:31:56.832Z,14.06
2022-11-15T09:32:56.844Z,13.99
2022-11-15T09:33:56.907Z,13.94
2022-11-15T09:34:56.847Z,13.90
2022-11-15T09:35:56.850Z,13.85
2022-11-15T09:36:56.881Z,13.78
2022-11-15T09:37:56.855Z,13.71
2022-11-15T09:38:56.866Z,13.65
2022-11-15T09:39:56.854Z,13.59
2022-11-15T09:40:56.869Z,13.56
2022-11-15T09:41:56.903Z,13.53
2022-11-15T09:42:56.885Z,13.49
2022-11-15T09:43:56.883Z,13.46
2022-11-15T09:44:56.913Z,13.43
2022-11-15T09:45:56.846Z,13.44
2022-11-15T09:46:56.911Z,13.43
2022-11-15T09:48:56.918Z,13.44
2022-11-15T09:49:58.090Z,13.45
2022-11-15T09:51:56.925Z,13.44
2022-11-15T09:52:56.891Z,13.42
2022-11-15T09:54:37.366Z,13.40
2022-11-15T09:55:56.897Z,13.39
2022-11-15T09:56:56.909Z,13.38
2022-11-15T09:58:56.889Z,13.39
2022-11-15T09:59:56.936Z,13.38
2022-11-15T10:00:56.933Z,13.40
2022-11-15T10:02:57.005Z,13.42
2022-11-15T10:03:56.900Z,13.46
2022-11-15T10:04:57.018Z,13.48
2022-11-15T10:05:56.916Z,13.50
2022-11-15T10:06:56.937Z,13.54
2022-11-15T10:07:56.973Z,13.55
2022-11-15T10:08:56.914Z,13.57
2022-11-15T10:09:56.946Z,13.60
2022-11-15T10:11:15.830Z,13.63
2022-11-15T10:11:56.955Z,13.64
2022-11-15T10:12:56.981Z,13.65
2022-11-15T10:13:56.957Z,13.68
2022-11-15T10:14:56.989Z,13.73
2022-11-15T10:15:56.963Z,13.72
2022-11-15T10:16:56.940Z,13.73
2022-11-15T10:17:56.999Z,13.74
2022-11-15T10:19:59.662Z,13.73
2022-11-15T10:20:56.969Z,13.72
2022-11-15T10:21:56.981Z,13.70
2022-11-15T10:22:57.023Z,13.72
2022-11-15T10:23:56.963Z,13.68
2022-11-15T10:25:58.401Z,13.65
2022-11-15T10:26:56.981Z,13.62
2022-11-15T10:27:56.996Z,13.59
2022-11-15T10:28:56.970Z,13.62
2022-11-15T10:29:56.987Z,13.66
2022-11-15T10:30:57.005Z,13.72
2022-11-15T10:31:56.989Z,13.77
2022-11-15T10:32:57.006Z,13.85
2022-11-15T10:33:56.976Z,13.91
2022-11-15T10:34:57.039Z,13.98
2022-11-15T10:35:57.114Z,14.02
2022-11-15T10:36:56.979Z,14.06
2022-11-15T10:37:57.004Z,14.07
2022-11-15T10:38:56.989Z,14.10
2022-11-15T10:39:57.013Z,14.12
2022-11-15T10:41:57.025Z,14.10
2022-11-15T10:42:57.007Z,14.07
2022-11-15T10:43:57.032Z,14.04
2022-11-15T10:44:57.033Z,14.02
2022-11-15T10:45:57.072Z,13.98
2022-11-15T10:46:57.048Z,13.92
2022-11-15T10:47:57.009Z,13.87
2022-11-15T10:48:57.055Z,13.85
2022-11-15T10:50:57.033Z,13.83
2022-11-15T10:51:57.073Z,13.81
2022-11-15T10:53:57.070Z,13.82
2022-11-15T10:54:57.050Z,13.85
2022-11-15T10:55:57.060Z,13.87
2022-11-15T10:56:57.126Z,13.89
2022-11-15T10:57:57.059Z,13.88
2022-11-15T10:58:57.059Z,13.89
2022-11-15T10:59:57.073Z,13.90
2022-11-15T11:02:57.067Z,13.92
2022-11-15T11:03:57.118Z,13.94
2022-11-15T11:04:57.064Z,13.96
2022-11-15T11:06:57.192Z,13.94
2022-11-15T11:07:57.090Z,13.92
2022-11-15T11:08:57.139Z,13.91
2022-11-15T11:09:57.083Z,13.90
2022-11-15T11:11:01.950Z,13.88
2022-11-15T11:11:57.108Z,13.85
2022-11-15T11:12:57.136Z,13.80
2022-11-15T11:13:57.097Z,13.74
2022-11-15T11:14:57.133Z,13.71
2022-11-15T11:15:57.079Z,13.65
2022-11-15T11:16:57.173Z,13.60
2022-11-15T11:17:57.110Z,13.53
2022-11-15T11:18:57.101Z,13.48
2022-11-15T11:19:57.143Z,13.41
2022-11-15T11:20:57.131Z,13.34
2022-11-15T11:21:57.131Z,13.33
2022-11-15T11:22:57.138Z,13.32
2022-11-15T11:23:57.142Z,13.37
2022-11-15T11:24:57.154Z,13.39
2022-11-15T11:25:57.114Z,13.40
2022-11-15T11:26:57.435Z,13.39
2022-11-15T11:27:57.114Z,13.41
2022-11-15T11:28:57.124Z,13.45
2022-11-15T11:29:57.185Z,13.44
2022-11-15T11:30:57.147Z,13.47
2022-11-15T11:31:57.172Z,13.55
2022-11-15T11:32:57.152Z,13.63
2022-11-15T11:33:57.158Z,13.72
2022-11-15T11:34:57.173Z,13.81
2022-11-15T11:35:57.146Z,13.89
2022-11-15T11:36:57.145Z,13.94
2022-11-15T11:37:57.149Z,14.00
2022-11-15T11:38:57.151Z,14.04
2022-11-15T11:39:57.174Z,14.03
2022-11-15T11:40:57.156Z,13.99
2022-11-15T11:41:57.162Z,13.89
2022-11-15T11:42:57.192Z,13.86
2022-11-15T11:43:57.203Z,13.83
2022-11-15T11:44:57.221Z,13.82
2022-11-15T11:45:57.167Z,13.85
2022-11-15T11:46:57.164Z,13.86
2022-11-15T11:47:57.207Z,13.85
2022-11-15T11:48:57.193Z,13.79
2022-11-15T11:49:57.170Z,13.73
2022-11-15T11:50:57.171Z,13.70
2022-11-15T11:51:57.167Z,13.62
2022-11-15T11:53:02.368Z,13.58
2022-11-15T11:53:57.204Z,13.57
2022-11-15T11:54:57.236Z,13.58
2022-11-15T11:57:57.212Z,13.57
2022-11-15T11:58:57.195Z,13.60
2022-11-15T11:59:57.231Z,13.61
2022-11-15T12:00:57.220Z,13.58
2022-11-15T12:01:57.356Z,13.41
2022-11-15T12:02:57.389Z,13.39
2022-11-15T12:03:57.192Z,13.40
2022-11-15T12:04:57.254Z,13.43
2022-11-15T12:05:57.220Z,13.37
2022-11-15T12:06:57.295Z,13.35
2022-11-15T12:08:00.730Z,13.38
2022-11-15T12:08:57.224Z,13.37
2022-11-15T12:09:57.211Z,13.39
2022-11-15T12:10:57.235Z,13.41
2022-11-15T12:11:57.246Z,13.37
2022-11-15T12:12:57.224Z,13.30
2022-11-15T12:14:57.258Z,13.35
2022-11-15T12:15:57.283Z,13.45
2022-11-15T12:16:57.249Z,13.56
2022-11-15T12:17:57.281Z,13.66
2022-11-15T12:18:57.251Z,13.74
2022-11-15T12:19:57.254Z,13.82
2022-11-15T12:20:57.309Z,13.92
2022-11-15T12:21:57.253Z,13.99
2022-11-15T12:22:57.262Z,14.04
2022-11-15T12:23:57.257Z,14.10
2022-11-15T12:24:57.261Z,14.15
2022-11-15T12:25:57.302Z,14.22
2022-11-15T12:26:57.309Z,14.27
2022-11-15T12:27:57.413Z,14.30
2022-11-15T12:29:06.333Z,14.32
2022-11-15T12:29:57.282Z,14.34
2022-11-15T12:30:58.458Z,14.37
2022-11-15T12:33:57.374Z,14.40
2022-11-15T12:34:57.289Z,14.42
2022-11-15T12:35:57.345Z,14.40
2022-11-15T12:36:57.311Z,14.37
2022-11-15T12:41:57.335Z,14.32
2022-11-15T12:42:57.318Z,14.29
2022-11-15T12:43:57.351Z,14.30
2022-11-15T12:44:57.427Z,14.09
2022-11-15T12:45:57.377Z,13.93
2022-11-15T12:46:57.345Z,13.81
2022-11-15T12:47:57.312Z,13.78
2022-11-15T12:48:57.367Z,13.76
2022-11-15T12:49:57.324Z,13.66
2022-11-15T12:50:57.380Z,13.63
2022-11-15T12:51:57.322Z,13.57
2022-11-15T12:52:57.321Z,13.48
2022-11-15T12:53:57.368Z,13.50
2022-11-15T12:54:57.362Z,13.57
2022-11-15T12:55:57.383Z,13.49
2022-11-15T12:56:57.337Z,13.33
2022-11-15T12:57:57.338Z,13.21
2022-11-15T12:58:57.375Z,13.24
2022-11-15T12:59:57.359Z,13.30
2022-11-15T13:00:57.435Z,13.37
2022-11-15T13:01:57.356Z,13.47
2022-11-15T13:02:57.388Z,13.57
2022-11-15T13:03:57.388Z,13.65
2022-11-15T13:04:57.367Z,13.73
2022-11-15T13:05:57.423Z,13.81
2022-11-15T13:06:57.412Z,13.90
2022-11-15T13:07:57.385Z,13.94
2022-11-15T13:09:57.367Z,13.93
2022-11-15T13:10:57.394Z,13.85
2022-11-15T13:11:57.391Z,13.66
2022-11-15T13:12:57.379Z,13.52
2022-11-15T13:13:57.411Z,13.43
2022-11-15T13:14:57.452Z,13.47
2022-11-15T13:15:57.430Z,13.55
2022-11-15T13:16:57.400Z,13.58
2022-11-15T13:17:57.447Z,13.56
2022-11-15T13:18:57.404Z,13.59
2022-11-15T13:19:57.431Z,13.63
2022-11-15T13:21:02.143Z,13.60
2022-11-15T13:21:57.408Z,13.56
2022-11-15T13:22:57.453Z,13.37
2022-11-15T13:23:57.427Z,13.35
2022-11-15T13:24:57.486Z,13.42
2022-11-15T13:25:57.411Z,13.49
2022-11-15T13:26:57.409Z,13.59
2022-11-15T13:27:57.412Z,13.69
2022-11-15T13:28:57.442Z,13.79
2022-11-15T13:29:57.475Z,13.90
2022-11-15T13:30:57.433Z,14.00
2022-11-15T13:31:57.440Z,14.07
2022-11-15T13:32:57.478Z,14.12
2022-11-15T13:33:57.422Z,14.17
2022-11-15T13:34:57.490Z,14.22
2022-11-15T13:35:57.460Z,14.27
2022-11-15T13:36:57.465Z,14.31
2022-11-15T13:37:57.482Z,14.37
2022-11-15T13:38:57.438Z,14.41
2022-11-15T13:39:57.446Z,14.40
2022-11-15T13:40:57.479Z,14.41
2022-11-15T13:41:57.440Z,14.26
2022-11-15T13:42:57.457Z,14.22
2022-11-15T13:43:57.473Z,14.19
2022-11-15T13:44:57.508Z,14.12
2022-11-15T13:45:57.468Z,14.00
2022-11-15T13:46:57.500Z,13.98
2022-11-15T13:47:57.518Z,13.89
2022-11-15T13:48:57.501Z,13.88
2022-11-15T13:51:57.474Z,13.83
2022-11-15T13:52:57.536Z,13.79
2022-11-15T13:53:57.484Z,13.78
2022-11-15T13:54:57.597Z,13.76
2022-11-15T13:55:57.494Z,13.78
2022-11-15T13:56:57.495Z,13.81
2022-11-15T13:57:57.528Z,13.79
2022-11-15T13:58:57.491Z,13.81
2022-11-15T13:59:57.530Z,13.75
2022-11-15T14:00:57.520Z,13.70
2022-11-15T14:01:57.569Z,13.68
2022-11-15T14:03:57.505Z,13.71
2022-11-15T14:04:57.520Z,13.69
2022-11-15T14:05:57.511Z,13.74
2022-11-15T14:06:57.665Z,13.79
2022-11-15T14:07:57.539Z,13.78
2022-11-15T14:08:57.556Z,13.72
2022-11-15T14:09:57.551Z,13.70
2022-11-15T14:10:57.530Z,13.71
2022-11-15T14:11:57.532Z,13.72
2022-11-15T14:12:57.579Z,13.67
2022-11-15T14:13:57.529Z,13.54
2022-11-15T14:14:57.532Z,13.49
2022-11-15T14:15:57.609Z,13.40
2022-11-15T14:16:57.535Z,13.34
2022-11-15T14:18:57.556Z,13.33
2022-11-15T14:19:57.536Z,13.30
2022-11-15T14:20:57.611Z,13.15
2022-11-15T14:21:57.583Z,13.09
2022-11-15T14:22:57.576Z,13.13
2022-11-15T14:23:57.567Z,13.20
2022-11-15T14:24:57.559Z,13.24
2022-11-15T14:25:57.568Z,13.27
2022-11-15T14:27:57.568Z,13.25
2022-11-15T14:28:57.608Z,13.21
2022-11-15T14:29:57.583Z,13.06
2022-11-15T14:30:57.603Z,12.97
2022-11-15T14:31:57.604Z,12.95
2022-11-15T14:32:57.589Z,13.01
2022-11-15T14:33:57.608Z,13.08
2022-11-15T14:34:57.583Z,13.16
2022-11-15T14:35:57.592Z,13.26
2022-11-15T14:36:57.627Z,13.37
2022-11-15T14:37:57.596Z,13.48
2022-11-15T14:38:57.636Z,13.58
2022-11-15T14:39:57.598Z,13.67
2022-11-15T14:40:57.627Z,13.75
2022-11-15T14:41:57.598Z,13.80
2022-11-15T14:42:57.616Z,13.84
2022-11-15T14:43:57.663Z,13.87
2022-11-15T14:44:57.607Z,13.91
2022-11-15T14:46:57.617Z,13.89
2022-11-15T14:47:57.627Z,13.78
2022-11-15T14:48:57.619Z,13.70
2022-11-15T14:49:57.616Z,13.59
2022-11-15T14:50:57.634Z,13.52
2022-11-15T14:51:57.671Z,13.43
2022-11-15T14:52:57.649Z,13.36